Time;durP1;ratioP1;P1;durP2;ratioP2;P2;SDS_P1;SDS_P2;PMS_P1;PMS_P2;Temp;Humidity;BMP_temperature;BMP_pressure;BME280_temperature;BME280_humidity;BME280_pressure;Samples;Min_cycle;Max_cycle;Signal;HPM_P1;HPM_P2
2022/11/28 00:01:26;;;;;;;47.25;11.55;;;5.10;99.90;;;;;;4745349;30;20082;-77
2022/11/28 00:03:53;;;;;;;41.53;11.23;;;5.10;99.90;;;;;;4757226;30;20510;-77
2022/11/28 00:06:20;;;;;;;39.20;12.55;;;5.10;99.90;;;;;;4751667;30;20077;-77
2022/11/28 00:08:48;;;;;;;44.13;11.57;;;5.10;99.90;;;;;;4768639;30;20047;-77
2022/11/28 00:11:15;;;;;;;39.28;10.93;;;5.10;99.90;;;;;;4744533;30;20059;-77
2022/11/28 00:13:44;;;;;;;43.90;11.32;;;5.10;99.90;;;;;;4754037;30;20135;-77
2022/11/28 00:16:16;;;;;;;46.80;11.68;;;5.70;99.90;;;;;;4766471;30;20126;-77
2022/11/28 00:18:43;;;;;;;39.97;10.68;;;5.10;99.90;;;;;;4740393;30;20063;-77
2022/11/28 00:21:13;;;;;;;53.97;11.77;;;5.90;99.90;;;;;;4735803;30;20508;-77
2022/11/28 00:23:41;;;;;;;42.53;12.73;;;5.10;99.90;;;;;;4765717;30;20123;-77
2022/11/28 00:26:12;;;;;;;44.85;12.80;;;5.10;99.90;;;;;;4735685;30;20044;-77
2022/11/28 00:28:39;;;;;;;46.30;11.80;;;5.10;99.90;;;;;;4753164;30;21295;-77
2022/11/28 00:31:12;;;;;;;41.63;11.13;;;5.10;99.90;;;;;;4740144;30;20051;-77
2022/11/28 00:33:40;;;;;;;49.70;11.77;;;5.10;99.90;;;;;;4770104;30;20074;-77
2022/11/28 00:36:08;;;;;;;41.55;11.65;;;5.70;99.90;;;;;;4753017;30;20101;-77
2022/11/28 00:38:35;;;;;;;45.90;11.55;;;5.10;99.90;;;;;;4747935;30;20130;-77
2022/11/28 00:41:08;;;;;;;51.75;12.68;;;4.40;99.90;;;;;;4760506;30;20063;-77
2022/11/28 00:43:36;;;;;;;51.28;12.93;;;5.10;99.90;;;;;;4750336;30;20055;-77
2022/11/28 00:46:03;;;;;;;52.58;11.90;;;5.10;99.90;;;;;;4753802;30;20048;-77
2022/11/28 00:48:34;;;;;;;52.33;12.32;;;5.10;99.90;;;;;;4733182;30;20458;-77
2022/11/28 00:51:11;;;;;;;40.25;10.23;;;5.10;99.90;;;;;;4750472;30;20052;-77
2022/11/28 00:53:41;;;;;;;48.92;13.05;;;5.10;99.90;;;;;;4751506;30;20075;-77
2022/11/28 00:56:11;;;;;;;47.70;11.52;;;5.10;99.90;;;;;;4766268;30;20063;-77
2022/11/28 00:58:40;;;;;;;45.83;11.73;;;5.10;99.90;;;;;;4747719;30;21156;-77
2022/11/28 01:01:19;;;;;;;51.15;12.52;;;5.10;99.90;;;;;;4770873;30;20508;-77
2022/11/28 01:03:48;;;;;;;50.95;11.73;;;5.10;99.90;;;;;;4759114;30;20058;-77
2022/11/28 01:06:25;;;;;;;44.08;10.55;;;5.00;99.90;;;;;;4771099;30;20102;-77
2022/11/28 01:08:55;;;;;;;43.88;10.40;;;5.10;99.90;;;;;;4738508;29;20056;-77
2022/11/28 01:11:22;;;;;;;43.53;10.32;;;3.90;99.90;;;;;;4742810;30;20055;-77
2022/11/28 01:13:52;;;;;;;37.92;10.65;;;5.10;99.90;;;;;;4756708;30;20504;-77
2022/11/28 01:16:19;;;;;;;48.10;12.90;;;5.40;99.90;;;;;;4751119;30;20055;-77
2022/11/28 01:18:46;;;;;;;41.95;10.90;;;5.20;99.90;;;;;;4753226;30;20049;-77
2022/11/28 01:21:13;;;;;;;45.25;12.15;;;5.00;99.90;;;;;;4769018;30;20134;-77
2022/11/28 01:23:40;;;;;;;42.30;10.60;;;5.00;99.90;;;;;;4752085;30;20047;-77
2022/11/28 01:26:10;;;;;;;47.22;11.00;;;6.20;99.90;;;;;;4754972;30;20051;-77
2022/11/28 01:28:37;;;;;;;36.80;9.95;;;5.10;99.90;;;;;;4767101;30;20062;-77
2022/11/28 01:31:07;;;;;;;47.17;12.07;;;5.10;99.90;;;;;;4738095;30;20051;-77
2022/11/28 01:33:34;;;;;;;44.05;11.00;;;5.10;99.90;;;;;;4753417;30;20083;-77
2022/11/28 01:36:02;;;;;;;48.22;11.52;;;5.10;99.90;;;;;;4753877;30;20107;-77
2022/11/28 01:38:30;;;;;;;40.83;11.55;;;5.10;99.90;;;;;;4764955;30;20504;-77
2022/11/28 01:40:57;;;;;;;41.92;10.50;;;5.10;99.90;;;;;;4768828;30;20150;-77
2022/11/28 01:43:24;;;;;;;40.70;10.32;;;5.10;99.90;;;;;;4766924;30;20040;-77
2022/11/28 01:45:52;;;;;;;41.63;13.48;;;5.10;99.90;;;;;;4753502;30;20056;-77
2022/11/28 01:48:35;;;;;;;53.47;13.27;;;5.00;99.90;;;;;;4750520;30;20056;-77
2022/11/28 01:51:06;;;;;;;41.40;10.52;;;5.10;99.90;;;;;;4752248;30;20047;-77
2022/11/28 01:53:38;;;;;;;37.38;9.90;;;5.10;99.90;;;;;;4765074;30;20579;-77
2022/11/28 01:56:08;;;;;;;44.28;11.73;;;5.10;99.90;;;;;;4751421;30;20052;-77
2022/11/28 01:58:41;;;;;;;34.97;9.98;;;5.10;99.90;;;;;;4733449;30;20052;-77
2022/11/28 02:01:09;;;;;;;39.38;11.10;;;5.10;99.90;;;;;;4767867;30;20062;-77
2022/11/28 02:03:43;;;;;;;50.63;13.00;;;5.00;99.90;;;;;;4749482;30;20062;-77
2022/11/28 02:06:13;;;;;;;42.25;10.38;;;5.10;99.90;;;;;;4750193;30;20925;-77
2022/11/28 02:08:41;;;;;;;39.63;10.35;;;5.10;99.90;;;;;;4737042;30;20058;-77
2022/11/28 02:11:38;;;;;;;46.53;10.65;;;5.00;99.90;;;;;;4749796;30;20058;-77
2022/11/28 02:14:23;;;;;;;39.17;11.40;;;4.70;99.90;;;;;;4765836;30;20047;-77
2022/11/28 02:17:21;;;;;;;37.28;11.05;;;5.00;99.90;;;;;;4747813;30;20048;-77
2022/11/28 02:20:15;;;;;;;44.30;12.43;;;5.00;99.90;;;;;;4752388;30;20063;-77
2022/11/28 02:23:04;;;;;;;39.00;10.63;;;4.90;99.90;;;;;;4738412;30;20086;-77
2022/11/28 02:25:47;;;;;;;37.83;10.20;;;5.00;99.90;;;;;;4751800;30;20573;-77
2022/11/28 02:28:45;;;;;;;46.05;10.55;;;5.30;99.90;;;;;;4750188;30;20123;-77
2022/11/28 02:32:03;;;;;;;39.85;10.75;;;5.00;99.90;;;;;;4760709;30;20072;-77
2022/11/28 02:35:11;;;;;;;37.22;10.20;;;5.00;99.90;;;;;;4728730;30;20063;-77
2022/11/28 02:38:11;;;;;;;37.47;9.48;;;5.00;99.90;;;;;;4736512;30;20415;-77
2022/11/28 02:41:20;;;;;;;34.95;9.48;;;4.10;99.90;;;;;;4768466;30;20058;-77
2022/11/28 02:43:55;;;;;;;35.50;10.65;;;5.00;99.90;;;;;;4678125;30;20507;-77
2022/11/28 02:46:37;;;;;;;45.05;11.43;;;5.10;99.90;;;;;;4664413;30;20556;-77
2022/11/28 02:49:09;;;;;;;42.17;11.43;;;5.00;99.90;;;;;;4720965;30;20109;-77
2022/11/28 02:51:38;;;;;;;38.00;9.60;;;5.00;99.90;;;;;;4751607;30;20163;-77
2022/11/28 02:54:09;;;;;;;42.30;10.60;;;4.90;99.90;;;;;;4737816;30;20157;-77
2022/11/28 02:56:36;;;;;;;42.17;10.60;;;5.00;99.90;;;;;;4753771;30;20109;-77
2022/11/28 02:59:20;;;;;;;41.13;11.38;;;5.00;99.90;;;;;;4763931;30;20112;-77
2022/11/28 03:01:47;;;;;;;42.08;10.75;;;5.00;99.90;;;;;;4752368;30;20056;-77
2022/11/28 03:04:14;;;;;;;40.88;9.98;;;4.90;99.90;;;;;;4741795;30;20117;-77
2022/11/28 03:07:02;;;;;;;36.83;10.43;;;5.00;99.90;;;;;;4750403;30;20051;-77
2022/11/28 03:09:54;;;;;;;35.95;9.93;;;5.00;99.90;;;;;;4752571;30;20538;-77
2022/11/28 03:12:55;;;;;;;29.77;8.85;;;4.90;99.90;;;;;;4749253;30;20071;-77
2022/11/28 03:15:34;;;;;;;29.35;8.13;;;4.80;99.90;;;;;;4752563;30;20470;-77
2022/11/28 03:18:16;;;;;;;30.02;9.10;;;5.00;99.90;;;;;;4753369;30;20052;-77
2022/11/28 03:20:52;;;;;;;28.20;9.55;;;5.00;99.90;;;;;;4752128;30;20443;-77
2022/11/28 03:23:29;;;;;;;28.40;8.32;;;5.00;99.90;;;;;;4750317;30;20055;-77
2022/11/28 03:26:06;;;;;;;30.10;8.63;;;4.90;99.90;;;;;;4751041;30;20074;-77
2022/11/28 03:28:55;;;;;;;31.77;8.50;;;5.00;99.90;;;;;;4753737;30;20056;-77
2022/11/28 03:31:34;;;;;;;33.85;8.40;;;4.90;99.90;;;;;;4749831;30;20535;-77
2022/11/28 03:34:05;;;;;;;28.00;7.80;;;5.00;99.90;;;;;;4767011;30;20063;-77
2022/11/28 03:36:39;;;;;;;28.23;9.00;;;4.90;99.90;;;;;;4730037;30;20142;-77
2022/11/28 03:39:21;;;;;;;25.85;9.20;;;4.90;99.90;;;;;;4751403;30;20137;-77
2022/11/28 03:42:00;;;;;;;31.55;8.82;;;4.90;99.90;;;;;;4752615;30;20138;-77
2022/11/28 03:44:31;;;;;;;28.75;10.40;;;4.90;99.90;;;;;;4741869;30;20079;-77
2022/11/28 03:47:01;;;;;;;28.13;9.23;;;4.90;99.90;;;;;;4764921;30;20047;-77
2022/11/28 03:49:42;;;;;;;29.20;8.75;;;5.70;99.90;;;;;;4743529;30;20163;-77
2022/11/28 03:52:21;;;;;;;28.85;10.05;;;4.90;99.90;;;;;;4762205;30;24103;-77
2022/11/28 03:54:56;;;;;;;28.60;7.85;;;4.90;99.90;;;;;;4749149;30;20044;-77
2022/11/28 03:57:41;;;;;;;30.00;9.05;;;4.90;99.90;;;;;;4746258;30;20063;-77
2022/11/28 04:00:11;;;;;;;25.17;8.55;;;4.90;99.90;;;;;;4746204;30;20104;-77
2022/11/28 04:03:08;;;;;;;25.20;7.57;;;4.90;99.90;;;;;;4747088;30;20055;-77
2022/11/28 04:05:45;;;;;;;31.08;8.38;;;4.90;99.90;;;;;;4762518;30;20052;-77
2022/11/28 04:08:28;;;;;;;30.58;8.05;;;4.80;99.90;;;;;;4751164;30;20047;-77
2022/11/28 04:11:00;;;;;;;32.45;8.93;;;4.80;99.90;;;;;;4762900;30;20050;-77
2022/11/28 04:13:47;;;;;;;27.30;7.90;;;4.80;99.90;;;;;;4732112;30;20044;-77
2022/11/28 04:16:32;;;;;;;28.23;8.98;;;4.80;99.90;;;;;;4759339;30;20075;-77
2022/11/28 04:19:15;;;;;;;25.00;8.73;;;4.70;99.90;;;;;;4733749;30;20062;-77
2022/11/28 04:21:53;;;;;;;30.60;8.95;;;5.10;99.90;;;;;;4746408;30;20067;-77
2022/11/28 04:24:26;;;;;;;24.15;8.10;;;4.70;99.90;;;;;;4749774;30;20097;-77
2022/11/28 04:26:56;;;;;;;;;;;4.60;99.90;;;;;;4746993;30;20047;-77
2022/11/28 04:29:25;;;;;;;31.10;7.47;;;4.60;99.90;;;;;;4766430;30;19936;-77
2022/11/28 04:31:57;;;;;;;30.02;9.20;;;4.60;99.90;;;;;;4737773;30;20067;-77
2022/11/28 04:34:26;;;;;;;31.75;8.52;;;4.40;99.90;;;;;;4763991;30;20099;-77
2022/11/28 04:36:56;;;;;;;30.95;8.40;;;4.60;99.90;;;;;;4757683;30;20060;-77
2022/11/28 04:39:26;;;;;;;35.55;9.95;;;4.60;99.90;;;;;;4752549;30;20517;-77
2022/11/28 04:42:07;;;;;;;30.10;8.68;;;4.60;99.90;;;;;;4748835;30;20147;-77
2022/11/28 04:44:52;;;;;;;35.33;9.27;;;4.60;99.90;;;;;;4760403;30;20107;-77
2022/11/28 04:47:20;;;;;;;39.47;10.02;;;4.60;99.90;;;;;;4761295;30;20121;-77
2022/11/28 04:49:47;;;;;;;31.10;10.52;;;4.60;99.90;;;;;;4735787;30;20053;-77
2022/11/28 04:52:23;;;;;;;39.33;11.32;;;4.60;99.90;;;;;;4764749;30;20052;-77
2022/11/28 04:55:06;;;;;;;36.17;9.75;;;4.60;99.90;;;;;;4767712;30;20059;-77
2022/11/28 04:57:40;;;;;;;44.72;11.55;;;4.60;99.90;;;;;;4769062;30;20048;-77
2022/11/28 05:00:11;;;;;;;44.63;10.27;;;4.60;99.90;;;;;;4749703;30;20067;-77
2022/11/28 05:02:40;;;;;;;41.92;11.02;;;4.70;99.90;;;;;;4755106;30;20573;-77
2022/11/28 05:05:20;;;;;;;40.92;10.88;;;4.50;99.90;;;;;;4757794;30;20496;-77
2022/11/28 05:07:47;;;;;;;35.55;10.38;;;4.70;99.90;;;;;;4755479;30;20139;-77
2022/11/28 05:10:15;;;;;;;33.88;9.52;;;4.60;99.90;;;;;;4767141;30;20054;-77
2022/11/28 05:12:42;;;;;;;42.85;11.52;;;4.60;99.90;;;;;;4752356;30;20058;-77
2022/11/28 05:15:11;;;;;;;39.83;11.00;;;4.50;99.90;;;;;;4752118;30;20056;-77
2022/11/28 05:17:38;;;;;;;38.42;9.85;;;4.60;99.90;;;;;;4749439;30;20404;-77
2022/11/28 05:20:09;;;;;;;39.45;10.93;;;4.60;99.90;;;;;;4736355;30;20044;-77
2022/11/28 05:22:36;;;;;;;29.33;8.30;;;4.60;99.90;;;;;;4752909;30;20048;-77
2022/11/28 05:25:03;;;;;;;41.65;11.45;;;4.50;99.90;;;;;;4754444;30;20513;-77
2022/11/28 05:27:30;;;;;;;33.25;12.20;;;4.50;99.90;;;;;;4737829;30;20055;-77
2022/11/28 05:29:58;;;;;;;41.10;11.85;;;4.90;99.90;;;;;;4751277;30;20048;-77
2022/11/28 05:32:30;;;;;;;42.03;12.98;;;4.50;99.90;;;;;;4753171;30;20056;-77
2022/11/28 05:34:57;;;;;;;42.20;12.77;;;4.50;99.90;;;;;;4770533;30;20087;-77
2022/11/28 05:37:25;;;;;;;38.78;11.38;;;4.50;99.90;;;;;;4750677;30;20555;-77
2022/11/28 05:39:52;;;;;;;42.80;11.90;;;4.50;99.90;;;;;;4735135;30;20059;-77
2022/11/28 05:42:20;;;;;;;39.17;12.07;;;4.50;99.90;;;;;;4752686;30;20138;-77
2022/11/28 05:44:47;;;;;;;42.10;12.40;;;4.50;99.90;;;;;;4751661;30;20047;-77
2022/11/28 05:47:15;;;;;;;46.97;12.35;;;4.80;99.90;;;;;;4768462;30;20039;-77
2022/11/28 05:49:42;;;;;;;40.67;12.40;;;4.00;99.90;;;;;;4746634;30;20052;-77
2022/11/28 05:52:09;;;;;;;42.05;11.55;;;4.60;99.90;;;;;;4743866;30;20039;-77
2022/11/28 05:54:36;;;;;;;40.03;11.27;;;4.80;99.90;;;;;;4753542;30;20048;-77
2022/11/28 05:57:06;;;;;;;44.35;13.20;;;5.10;99.90;;;;;;4750414;30;20054;-77
2022/11/28 05:59:33;;;;;;;40.85;10.90;;;4.50;99.90;;;;;;4748592;30;20128;-77
2022/11/28 06:02:00;;;;;;;47.97;12.73;;;4.50;99.90;;;;;;4770604;30;20052;-77
2022/11/28 06:04:28;;;;;;;39.40;10.90;;;4.50;99.90;;;;;;4769361;30;20054;-77
2022/11/28 06:06:55;;;;;;;41.55;11.98;;;4.50;99.90;;;;;;4755175;30;20047;-77
2022/11/28 06:09:22;;;;;;;34.85;9.85;;;4.50;99.90;;;;;;4750270;30;20059;-77
2022/11/28 06:11:52;;;;;;;40.50;10.90;;;4.50;99.90;;;;;;4735703;30;20058;-77
2022/11/28 06:14:19;;;;;;;40.42;11.95;;;4.40;99.90;;;;;;4749969;30;20083;-77
2022/11/28 06:16:46;;;;;;;46.05;13.05;;;4.40;99.90;;;;;;4737672;30;20048;-77
2022/11/28 06:19:13;;;;;;;39.95;10.75;;;4.00;99.90;;;;;;4764010;30;20060;-76
2022/11/28 06:21:41;;;;;;;42.70;11.45;;;4.50;99.90;;;;;;4763543;30;20052;-77
2022/11/28 06:24:09;;;;;;;36.85;12.30;;;4.50;99.90;;;;;;4745850;30;20080;-77
2022/11/28 06:26:36;;;;;;;42.78;12.15;;;4.50;99.90;;;;;;4749102;30;20044;-77
2022/11/28 06:29:03;;;;;;;40.88;12.15;;;4.50;99.90;;;;;;4737462;30;20052;-77
2022/11/28 06:31:31;;;;;;;38.15;13.15;;;4.50;99.90;;;;;;4749841;30;20105;-77
2022/11/28 06:33:58;;;;;;;43.83;12.60;;;4.50;99.90;;;;;;4736721;30;20068;-77
2022/11/28 06:36:26;;;;;;;41.55;13.00;;;3.60;99.90;;;;;;4766505;30;20127;-76
2022/11/28 06:38:53;;;;;;;47.10;14.85;;;4.40;99.90;;;;;;4747750;30;20052;-76
2022/11/28 06:41:21;;;;;;;54.80;17.00;;;4.40;99.90;;;;;;4761527;30;20081;-77
2022/11/28 06:43:49;;;;;;;42.30;15.55;;;4.40;99.90;;;;;;4749839;30;20504;-77
2022/11/28 06:46:19;;;;;;;51.95;16.08;;;4.50;99.90;;;;;;4752989;30;20051;-77
2022/11/28 06:48:48;;;;;;;35.53;12.95;;;4.50;99.90;;;;;;4737204;30;20043;-77
2022/11/28 06:51:16;;;;;;;45.15;13.48;;;5.50;99.90;;;;;;4765348;30;20044;-77
2022/11/28 06:53:43;;;;;;;37.22;10.88;;;4.50;99.90;;;;;;4767149;30;20051;-77
2022/11/28 06:56:13;;;;;;;44.15;12.80;;;4.50;99.90;;;;;;4758953;30;20143;-77
2022/11/28 06:58:41;;;;;;;38.45;11.18;;;4.50;99.90;;;;;;4737135;30;20055;-77
2022/11/28 07:01:15;;;;;;;41.10;12.18;;;4.50;99.90;;;;;;4738310;30;20051;-77
2022/11/28 07:03:43;;;;;;;44.22;12.32;;;4.60;99.90;;;;;;4733776;30;20455;-77
2022/11/28 07:06:12;;;;;;;40.40;11.95;;;4.50;99.90;;;;;;4750822;30;20055;-77
2022/11/28 07:08:40;;;;;;;35.85;11.02;;;4.60;99.90;;;;;;4753134;30;20063;-77
2022/11/28 07:11:13;;;;;;;38.08;11.50;;;4.60;99.90;;;;;;4754108;30;20516;-77
2022/11/28 07:13:44;;;;;;;35.42;10.63;;;4.90;99.90;;;;;;4775119;30;20566;-77
2022/11/28 07:16:15;;;;;;;31.10;11.15;;;4.90;99.90;;;;;;4736622;30;20058;-77
2022/11/28 07:23:38;;;;;;;35.28;13.95;;;4.60;99.90;;;;;;4826297;24;20058;31
2022/11/28 07:26:09;;;;;;;38.28;13.10;;;4.60;99.90;;;;;;4758683;30;20036;-77
2022/11/28 07:50:08;;;;;;;27.95;8.75;;;4.80;99.90;;;;;;5080321;24;20050;-77
2022/11/28 08:03:46;;;;;;;25.40;8.77;;;4.80;99.90;;;;;;4852158;24;20059;-77
2022/11/28 08:16:56;;;;;;;29.90;10.20;;;4.80;99.90;;;;;;4960017;24;20078;-79
2022/11/28 08:19:38;;;;;;;26.17;7.90;;;4.90;99.90;;;;;;4797571;24;20902;-78
2022/11/28 08:22:16;;;;;;;26.23;9.25;;;4.70;99.90;;;;;;4766493;29;20135;-77
2022/11/28 08:24:44;;;;;;;30.95;9.00;;;4.80;99.90;;;;;;4758038;24;20061;-77
2022/11/28 08:27:35;;;;;;;27.50;10.40;;;4.00;99.90;;;;;;5455763;24;20061;31
2022/11/28 08:30:37;;;;;;;26.85;9.02;;;5.00;99.90;;;;;;5284498;24;20061;31
2022/11/28 08:40:55;;;;;;;23.67;8.13;;;5.10;99.90;;;;;;4773394;30;20042;-79
2022/11/28 08:43:57;;;;;;;25.92;8.75;;;5.10;99.90;;;;;;5237837;24;20047;-78
2022/11/28 08:46:45;;;;;;;28.90;9.65;;;5.10;99.90;;;;;;4728844;30;20105;-78
2022/11/28 08:49:29;;;;;;;27.37;9.50;;;5.10;99.90;;;;;;4908049;24;20046;-78
2022/11/28 08:52:35;;;;;;;;;;;5.90;99.90;;;;;;4768416;30;20060;-78
2022/11/28 08:55:53;;;;;;;28.05;9.10;;;4.80;99.90;;;;;;4916245;24;19913;-79
2022/11/28 09:12:31;;;;;;;27.77;8.90;;;5.10;99.90;;;;;;5266536;24;20057;-89
2022/11/28 09:15:24;;;;;;;32.50;9.93;;;5.00;99.90;;;;;;4726388;30;20116;-89
2022/11/28 09:19:15;;;;;;;30.15;9.93;;;5.00;99.90;;;;;;4732784;30;20044;-90
2022/11/28 09:22:33;;;;;;;28.25;10.15;;;5.20;99.90;;;;;;4685286;30;20065;-89
2022/11/28 09:31:53;;;;;;;30.05;11.68;;;5.30;99.90;;;;;;5339784;24;20059;-88
2022/11/28 09:35:20;;;;;;;29.75;10.90;;;5.30;99.90;;;;;;4790514;30;20039;-88
2022/11/28 09:43:08;;;;;;;31.45;11.02;;;5.20;99.90;;;;;;4742860;30;20033;-88
2022/11/28 09:46:43;;;;;;;27.25;8.95;;;5.40;99.90;;;;;;4597746;31;20079;-89
2022/11/28 10:04:10;;;;;;;29.38;11.85;;;5.30;99.90;;;;;;5751169;24;20038;-79
2022/11/28 10:57:12;;;;;;;39.77;14.83;;;5.60;99.90;;;;;;5789016;24;20030;31
2022/11/28 11:03:32;;;;;;;34.00;10.63;;;5.70;99.90;;;;;;4978629;24;20071;-78
2022/11/28 11:09:32;;;;;;;30.35;10.80;;;5.70;99.90;;;;;;4916692;24;20060;-79
2022/11/28 11:16:02;;;;;;;32.97;10.88;;;5.60;99.90;;;;;;5399736;24;20050;-79
2022/11/28 11:22:46;;;;;;;34.38;12.70;;;5.60;99.90;;;;;;5577412;24;20051;31
2022/11/28 11:56:49;;;;;;;40.33;13.23;;;5.80;99.90;;;;;;5102893;24;20025;-78
2022/11/28 11:59:44;;;;;;;32.70;10.55;;;5.70;99.90;;;;;;5566995;24;20027;-77
2022/11/28 12:02:30;;;;;;;34.05;10.23;;;5.90;99.90;;;;;;5604896;24;20754;31
2022/11/28 12:08:53;;;;;;;33.88;11.73;;;6.00;99.90;;;;;;5560290;24;20035;31
2022/11/28 13:32:24;;;;;;;35.97;11.55;;;5.30;99.90;;;;;;5310330;24;20600;-78
2022/11/28 13:36:16;;;;;;;37.83;11.95;;;4.50;99.90;;;;;;5427253;24;21491;31
2022/11/28 13:39:44;;;;;;;28.77;9.55;;;5.20;99.90;;;;;;5445816;24;20058;-78
2022/11/28 13:46:32;;;;;;;29.20;9.30;;;5.00;99.90;;;;;;4916467;24;20056;31
2022/11/28 13:56:38;;;;;;;30.10;10.00;;;5.00;99.90;;;;;;5791032;24;20074;31
2022/11/28 14:02:58;;;;;;;35.78;11.70;;;5.10;99.90;;;;;;5299712;24;20095;-78
2022/11/28 14:05:37;;;;;;;35.83;9.60;;;5.10;99.90;;;;;;4808403;29;20084;-78
2022/11/28 15:20:57;;;;;;;26.15;8.15;;;4.10;99.90;;;;;;5699639;24;20038;-77
2022/11/28 15:57:22;;;;;;;40.25;16.23;;;3.60;99.90;;;;;;4784131;29;20083;-78
2022/11/28 15:59:49;;;;;;;45.42;18.50;;;3.40;99.90;;;;;;4800020;29;20055;-78
2022/11/28 16:02:31;;;;;;;46.47;17.52;;;3.50;99.90;;;;;;4779416;29;20044;-78
2022/11/28 16:05:05;;;;;;;45.80;15.25;;;3.60;99.90;;;;;;4781812;29;20569;-78
2022/11/28 16:07:34;;;;;;;46.78;16.48;;;2.80;99.90;;;;;;4781201;29;21635;-78
2022/11/28 16:10:19;;;;;;;45.03;17.00;;;3.50;99.90;;;;;;4788231;29;20051;-78
2022/11/28 16:12:47;;;;;;;40.85;15.70;;;3.50;99.90;;;;;;4764921;29;20185;-78
2022/11/28 16:15:19;;;;;;;46.97;15.80;;;3.30;99.90;;;;;;4785487;29;20555;-78
2022/11/28 16:17:47;;;;;;;37.08;14.27;;;4.40;99.90;;;;;;4767480;29;20553;-78
2022/11/28 16:20:25;;;;;;;43.85;14.52;;;3.40;99.90;;;;;;4777105;29;20062;-78
2022/11/28 16:23:06;;;;;;;46.80;15.82;;;3.20;99.90;;;;;;4764046;30;20056;-78
2022/11/28 16:25:34;;;;;;;43.28;17.05;;;3.40;99.90;;;;;;4762565;30;20127;-78
2022/11/28 16:28:01;;;;;;;44.95;15.93;;;3.00;99.90;;;;;;4775832;29;20063;-78
2022/11/28 16:30:38;;;;;;;45.78;14.52;;;3.30;99.90;;;;;;4759434;30;20044;-78
2022/11/28 16:33:34;;;;;;;43.22;16.25;;;2.80;99.90;;;;;;4763908;30;20048;-78
2022/11/28 16:36:16;;;;;;;46.10;17.60;;;2.30;99.90;;;;;;4752110;30;20062;-78
2022/11/28 16:38:47;;;;;;;60.35;20.48;;;3.30;99.90;;;;;;4766358;30;20142;-78
2022/11/28 16:41:25;;;;;;;52.40;19.70;;;3.30;99.90;;;;;;4766983;29;21065;-78
2022/11/28 16:43:57;;;;;;;59.80;20.38;;;3.20;99.90;;;;;;4783038;29;20501;-78
2022/11/28 16:46:37;;;;;;;48.38;17.50;;;3.90;99.90;;;;;;4767764;30;20043;-78
2022/11/28 16:49:08;;;;;;;51.08;17.50;;;3.20;99.90;;;;;;4767745;30;20048;-78
2022/11/28 16:51:39;;;;;;;46.40;15.75;;;2.20;99.90;;;;;;4765648;30;20813;-78
2022/11/28 16:54:30;;;;;;;47.75;17.10;;;3.10;99.90;;;;;;4767537;30;20143;-78
2022/11/28 16:57:10;;;;;;;46.00;16.55;;;3.00;99.90;;;;;;4769327;30;20052;-78
2022/11/28 16:59:38;;;;;;;57.97;19.60;;;4.50;99.90;;;;;;4782737;29;20056;-78
2022/11/28 17:02:19;;;;;;;52.17;18.17;;;3.00;99.90;;;;;;4766771;29;20070;-78
2022/11/28 17:04:49;;;;;;;57.80;19.73;;;2.80;99.90;;;;;;4768615;30;20164;-78
2022/11/28 17:07:19;;;;;;;61.63;21.63;;;3.00;99.90;;;;;;4766097;30;20079;-78
2022/11/28 17:09:48;;;;;;;60.78;19.35;;;3.00;99.90;;;;;;4753847;30;20060;-78
2022/11/28 17:12:24;;;;;;;48.42;19.10;;;3.00;99.90;;;;;;4754213;30;20108;-78
2022/11/28 17:14:53;;;;;;;53.20;20.08;;;2.90;99.90;;;;;;4750011;30;20082;-78
2022/11/28 17:17:22;;;;;;;50.65;17.42;;;4.10;99.90;;;;;;4764317;30;20469;-78
2022/11/28 17:19:50;;;;;;;50.38;17.27;;;3.00;99.90;;;;;;4767183;30;20063;-78
2022/11/28 17:22:22;;;;;;;42.42;16.25;;;2.80;99.90;;;;;;4765578;30;20048;-78
2022/11/28 17:24:57;;;;;;;44.38;16.25;;;2.70;99.90;;;;;;4769880;29;20055;-78
2022/11/28 17:27:31;;;;;;;41.85;14.27;;;2.50;99.90;;;;;;4768062;30;20477;-78
2022/11/28 17:30:00;;;;;;;46.35;16.17;;;2.70;99.90;;;;;;4783241;30;20097;-78
2022/11/28 17:32:28;;;;;;;54.40;17.10;;;2.50;99.90;;;;;;4756107;30;20043;-78
2022/11/28 17:34:58;;;;;;;45.90;17.20;;;3.00;99.90;;;;;;4766372;30;20060;-78
2022/11/28 17:37:26;;;;;;;47.58;16.10;;;3.50;99.90;;;;;;4767032;30;20055;-78
2022/11/28 17:42:41;;;;;;;46.58;16.70;;;2.50;99.90;;;;;;4769579;30;20496;-78
2022/11/28 17:45:14;;;;;;;46.42;15.70;;;3.50;99.90;;;;;;4749620;30;20130;-78
2022/11/28 17:47:42;;;;;;;51.92;18.33;;;2.60;99.90;;;;;;4749285;30;20052;-78
2022/11/28 17:50:10;;;;;;;50.25;16.88;;;3.80;99.90;;;;;;4770490;30;22621;-78
2022/11/28 17:52:38;;;;;;;60.40;18.92;;;1.70;99.90;;;;;;4768766;30;20059;-78
2022/11/28 17:55:06;;;;;;;55.95;18.75;;;2.60;99.90;;;;;;4767017;30;20615;-78
2022/11/28 17:57:35;;;;;;;48.90;16.80;;;2.60;99.90;;;;;;4767399;30;20063;-78
2022/11/28 18:00:07;;;;;;;49.58;16.88;;;2.50;99.90;;;;;;4768448;30;20142;-78
2022/11/28 18:02:42;;;;;;;54.80;17.58;;;2.50;99.90;;;;;;4765455;30;20079;-78
2022/11/28 18:05:11;;;;;;;51.80;17.52;;;1.40;99.90;;;;;;4763851;30;20134;-77
2022/11/28 18:07:39;;;;;;;61.28;20.27;;;2.50;99.90;;;;;;4763775;30;20052;-78
2022/11/28 18:10:10;;;;;;;58.20;19.13;;;2.20;99.90;;;;;;4762959;30;20543;-78
2022/11/28 18:12:38;;;;;;;52.45;18.95;;;2.40;99.90;;;;;;4751707;30;20047;-78
2022/11/28 18:15:09;;;;;;;56.38;18.95;;;3.00;99.90;;;;;;4764853;30;20048;-78
2022/11/28 18:17:37;;;;;;;52.75;18.30;;;2.50;99.90;;;;;;4762924;30;20512;-78
2022/11/28 18:20:06;;;;;;;50.63;17.48;;;3.20;99.90;;;;;;4778858;29;20416;-78
2022/11/28 18:22:34;;;;;;;53.00;18.50;;;2.70;99.90;;;;;;4764832;30;20055;-78
2022/11/28 18:25:06;;;;;;;64.25;21.45;;;2.40;99.90;;;;;;4767456;30;20052;-78
2022/11/28 18:27:35;;;;;;;52.85;19.88;;;0.90;99.90;;;;;;4784325;29;20047;-78
2022/11/28 18:30:05;;;;;;;52.17;21.02;;;1.80;99.90;;;;;;4778581;29;20579;-78
2022/11/28 18:32:33;;;;;;;58.38;21.23;;;3.00;99.90;;;;;;4766250;30;20105;-78
2022/11/28 18:35:02;;;;;;;58.78;20.50;;;1.90;99.90;;;;;;4765042;30;20124;-78
2022/11/28 18:37:30;;;;;;;69.18;24.00;;;1.40;99.90;;;;;;4779115;29;20508;-78
2022/11/28 18:39:58;;;;;;;68.13;23.27;;;2.30;99.90;;;;;;4782979;29;20055;-78
2022/11/28 18:42:35;;;;;;;67.45;22.83;;;2.30;99.90;;;;;;4767779;30;20064;-78
2022/11/28 18:45:03;;;;;;;59.20;20.88;;;2.30;99.90;;;;;;4768186;30;20110;-78
2022/11/28 18:47:33;;;;;;;65.28;22.73;;;2.20;99.90;;;;;;4778397;29;20153;-78
2022/11/28 18:50:01;;;;;;;64.47;22.67;;;2.20;99.90;;;;;;4767064;30;20056;-78
2022/11/28 18:52:29;;;;;;;63.47;21.85;;;2.90;99.90;;;;;;4763076;30;20052;-78
2022/11/28 18:55:00;;;;;;;66.43;22.85;;;2.50;99.90;;;;;;4763958;30;20040;-78
2022/11/28 18:57:31;;;;;;;66.45;23.90;;;2.10;99.90;;;;;;4762753;30;20058;-78
2022/11/28 19:00:00;;;;;;;75.90;29.33;;;2.10;99.90;;;;;;4766242;30;20051;-78
2022/11/28 19:02:28;;;;;;;83.97;30.73;;;2.20;99.90;;;;;;4769287;30;20047;-78
2022/11/28 19:04:57;;;;;;;78.57;27.63;;;3.50;99.90;;;;;;4748953;30;20051;-78
2022/11/28 19:07:25;;;;;;;91.43;35.47;;;2.10;99.90;;;;;;4750335;30;20063;-78
2022/11/28 19:09:53;;;;;;;77.53;29.33;;;2.10;99.90;;;;;;4760379;30;20505;-78
2022/11/28 19:12:21;;;;;;;85.95;35.35;;;2.60;99.90;;;;;;4779522;29;20535;-78
2022/11/28 19:14:50;;;;;;;90.93;36.97;;;2.10;99.90;;;;;;4780796;29;20063;-78
2022/11/28 19:17:25;;;;;;;82.03;32.17;;;3.30;99.90;;;;;;4765911;30;20253;-78
2022/11/28 19:19:54;;;;;;;76.50;28.42;;;2.20;99.90;;;;;;4764654;30;20048;-78
2022/11/28 19:22:22;;;;;;;70.00;26.95;;;0.80;99.90;;;;;;4778359;29;20059;-78
2022/11/28 19:24:50;;;;;;;77.93;28.77;;;2.00;99.90;;;;;;4761155;30;20062;-78
2022/11/28 19:27:21;;;;;;;71.82;26.83;;;3.90;99.90;;;;;;4752417;30;20044;-78
2022/11/28 19:29:52;;;;;;;91.18;30.80;;;2.00;99.90;;;;;;4780347;30;20138;-78
2022/11/28 19:32:20;;;;;;;71.25;26.73;;;2.00;99.90;;;;;;4767670;29;20051;-78
2022/11/28 19:34:55;;;;;;;79.07;28.92;;;2.60;99.90;;;;;;4765449;30;20068;-78
2022/11/28 19:37:23;;;;;;;80.20;29.60;;;2.20;99.90;;;;;;4767629;30;20083;-78
2022/11/28 19:39:53;;;;;;;82.28;29.50;;;2.00;99.90;;;;;;4779119;29;20066;-78
2022/11/28 19:42:27;;;;;;;83.05;29.70;;;2.00;99.90;;;;;;4767953;30;20108;-78
2022/11/28 19:44:55;;;;;;;86.75;28.63;;;2.60;99.90;;;;;;4764166;30;20095;-78
2022/11/28 19:47:23;;;;;;;72.68;25.75;;;3.80;99.90;;;;;;4765693;30;20101;-78
2022/11/28 19:49:54;;;;;;;66.93;24.70;;;1.90;99.90;;;;;;4749844;30;20557;-78
2022/11/28 19:52:24;;;;;;;72.20;25.05;;;2.30;99.90;;;;;;4763451;30;20054;-78
2022/11/28 19:54:52;;;;;;;68.63;24.38;;;2.80;99.90;;;;;;4749122;30;20488;-78
2022/11/28 19:57:20;;;;;;;68.13;21.38;;;1.20;99.90;;;;;;4766263;30;20063;-78
2022/11/28 19:59:48;;;;;;;57.08;20.58;;;3.10;99.90;;;;;;4762140;30;20055;-78
2022/11/28 20:02:16;;;;;;;61.20;19.52;;;1.90;99.90;;;;;;4779148;30;20074;-77